Time;durP1;ratioP1;P1;durP2;ratioP2;P2;SDS_P1;SDS_P2;PMS_P1;PMS_P2;Temp;Humidity;BMP_temperature;BMP_pressure;BME280_temperature;BME280_humidity;BME280_pressure;Samples;Min_cycle;Max_cycle;Signal;HPM_P1;HPM_P2
2022/04/19 00:01:07;;;;;;;14.50;9.88;;;;;;;7.22;66.40;100098.34;5076482;28;20028;-66
2022/04/19 00:03:33;;;;;;;17.15;9.50;;;;;;;7.24;65.83;100107.03;5080905;28;20048;-66
2022/04/19 00:05:58;;;;;;;16.95;10.20;;;;;;;7.21;67.03;100093.94;5078205;28;20034;-66
2022/04/19 00:08:24;;;;;;;17.00;10.73;;;;;;;7.14;66.67;100088.25;5082291;28;20542;-66
2022/04/19 00:10:49;;;;;;;19.33;10.75;;;;;;;7.19;66.57;100087.91;5077761;28;20036;-66
2022/04/19 00:13:18;;;;;;;16.13;10.32;;;;;;;7.17;67.01;100080.03;5082708;28;20032;-66
2022/04/19 00:15:45;;;;;;;17.15;10.60;;;;;;;7.17;66.79;100085.34;5081872;28;20099;-65
2022/04/19 00:18:11;;;;;;;14.55;9.55;;;;;;;7.19;65.86;100079.91;5076528;28;20035;-66
2022/04/19 00:20:42;;;;;;;16.80;10.13;;;;;;;7.14;66.59;100069.59;5069528;28;20024;-66
2022/04/19 00:23:15;;;;;;;17.45;9.95;;;;;;;7.23;65.84;100092.88;5072851;28;20119;-66
2022/04/19 00:25:42;;;;;;;14.33;9.10;;;;;;;7.22;65.78;100087.66;5074138;28;20482;-66
2022/04/19 00:28:09;;;;;;;13.35;9.57;;;;;;;7.22;66.34;100077.00;5078455;28;20530;-66
2022/04/19 00:30:35;;;;;;;15.57;9.40;;;;;;;7.22;65.67;100072.50;5085755;28;20103;-66
2022/04/19 00:33:00;;;;;;;16.83;9.38;;;;;;;7.23;66.12;100073.34;5077867;28;20024;-66
2022/04/19 00:35:28;;;;;;;15.10;10.00;;;;;;;7.21;66.67;100076.13;5088145;28;20043;-66
2022/04/19 00:37:54;;;;;;;20.70;9.82;;;;;;;7.22;66.59;100077.00;5066657;28;20081;-67
2022/04/19 00:40:19;;;;;;;16.98;10.75;;;;;;;7.19;67.65;100067.41;5079879;28;20122;-66
2022/04/19 00:42:46;;;;;;;17.45;10.63;;;;;;;7.18;68.32;100064.84;5076951;28;20029;-66
2022/04/19 00:45:12;;;;;;;16.60;10.25;;;;;;;7.15;68.62;100065.13;5076686;28;20094;-66
2022/04/19 00:47:38;;;;;;;17.60;11.23;;;;;;;7.13;68.23;100067.03;5076159;28;20044;-66
2022/04/19 00:50:04;;;;;;;17.48;11.32;;;;;;;7.09;68.86;100071.75;5089431;28;20027;-66
2022/04/19 00:52:37;;;;;;;16.55;11.07;;;;;;;7.01;68.95;100066.19;5086529;28;20497;-66
2022/04/19 00:55:04;;;;;;;17.92;11.15;;;;;;;7.02;69.54;100064.38;5082393;28;20030;-66
2022/04/19 00:57:30;;;;;;;14.63;9.70;;;;;;;6.93;69.85;100056.09;5086689;28;20093;-65
2022/04/19 00:59:57;;;;;;;17.02;10.82;;;;;;;6.96;69.86;100065.66;5086072;28;20032;-66
2022/04/19 01:02:23;;;;;;;14.48;10.10;;;;;;;6.95;70.20;100058.66;5082938;28;20445;-66
2022/04/19 01:04:49;;;;;;;20.48;9.95;;;;;;;6.94;69.87;100065.78;5076782;28;20039;-65
2022/04/19 01:07:18;;;;;;;17.50;10.48;;;;;;;6.90;70.42;100055.47;5086398;28;20050;-65
2022/04/19 01:09:44;;;;;;;12.65;8.35;;;;;;;6.85;70.12;100049.66;5075756;28;20115;-65
2022/04/19 01:14:56;;;;;;;16.27;9.32;;;;;;;6.83;69.62;100049.78;5076676;28;20555;-66
2022/04/19 01:17:25;;;;;;;13.63;9.27;;;;;;;6.86;69.59;100059.34;5091665;28;20089;-66
2022/04/19 01:19:51;;;;;;;15.07;8.73;;;;;;;6.84;69.05;100054.13;5083986;28;20035;-66
2022/04/19 01:22:16;;;;;;;12.80;8.52;;;;;;;6.78;68.44;100035.13;5081819;28;20390;-66
2022/04/19 01:24:43;;;;;;;12.18;7.93;;;;;;;6.85;67.72;100045.19;5079579;28;20032;-65
2022/04/19 01:27:09;;;;;;;10.63;8.07;;;;;;;6.79;67.54;100032.31;5078682;28;20476;-66
2022/04/19 01:29:35;;;;;;;9.98;7.60;;;;;;;6.87;66.66;100045.91;5080597;28;20104;-66
2022/04/19 01:32:03;;;;;;;11.60;7.35;;;;;;;6.89;65.73;100041.31;5080537;28;20020;-66
2022/04/19 01:34:28;;;;;;;12.52;6.93;;;;;;;6.89;65.16;100043.97;5079988;28;20504;-66
2022/04/19 01:36:54;;;;;;;11.13;6.72;;;;;;;6.93;65.40;100039.25;5081307;28;20102;-66
2022/04/19 01:40:16;;;;;;;12.63;7.97;;;;;;;6.95;65.48;100034.66;5073219;28;20119;-66
2022/04/19 01:42:08;;;;;;;10.77;7.78;;;;;;;6.95;65.21;100034.66;5085225;28;20106;-66
2022/04/19 01:44:34;;;;;;;10.70;6.82;;;;;;;6.95;65.46;100040.84;5081272;28;20089;-69
2022/04/19 01:47:02;;;;;;;10.18;7.10;;;;;;;6.93;63.81;100029.44;5082442;28;20032;-69
2022/04/19 01:49:28;;;;;;;10.85;7.18;;;;;;;6.93;64.02;100028.56;5082356;28;20052;-68
2022/04/19 01:51:53;;;;;;;12.90;6.43;;;;;;;6.92;64.62;100029.56;5084916;28;20036;-69
2022/04/19 01:54:19;;;;;;;9.30;6.95;;;;;;;6.91;64.28;100019.88;5081767;28;20028;-68
2022/04/19 01:56:44;;;;;;;12.02;6.93;;;;;;;6.91;64.88;100022.53;5087272;28;20047;-69
2022/04/19 01:59:11;;;;;;;9.65;5.97;;;;;;;6.82;63.52;100007.25;5080506;28;20020;-66
2022/04/19 02:01:37;;;;;;;8.65;6.10;;;;;;;6.91;62.68;100018.03;5084230;28;20028;-66
2022/04/19 02:04:03;;;;;;;8.50;5.38;;;;;;;6.86;61.72;100006.03;5082198;28;20035;-66
2022/04/19 02:06:30;;;;;;;9.60;6.47;;;;;;;6.92;60.78;100001.09;5083183;28;20058;-65
2022/04/19 02:08:55;;;;;;;8.25;5.72;;;;;;;6.92;59.65;100006.44;5080542;28;20052;-66
2022/04/19 02:11:21;;;;;;;7.20;5.70;;;;;;;7.02;59.41;100000.38;5084096;28;20056;-65
2022/04/19 02:13:46;;;;;;;9.68;6.60;;;;;;;7.04;59.41;100001.94;5082517;28;20077;-66
2022/04/19 02:16:12;;;;;;;11.20;6.63;;;;;;;7.06;58.83;99993.84;5083547;28;20077;-65
2022/04/19 02:18:37;;;;;;;9.35;6.07;;;;;;;7.04;58.48;99986.78;5085888;28;20127;-66
2022/04/19 02:21:02;;;;;;;7.32;5.35;;;;;;;7.04;58.25;99976.13;5080372;28;20040;-66
2022/04/19 02:23:28;;;;;;;7.43;4.88;;;;;;;7.13;57.83;99981.72;5071030;28;20106;-66
2022/04/19 02:25:55;;;;;;;13.45;5.47;;;;;;;7.14;57.94;99978.06;5087373;28;20049;-66
2022/04/19 02:28:23;;;;;;;7.82;5.07;;;;;;;7.14;58.09;99978.06;5076973;28;20020;-68
2022/04/19 02:30:49;;;;;;;7.93;5.03;;;;;;;7.18;58.29;99982.19;5076565;28;20524;-69
2022/04/19 02:33:15;;;;;;;6.63;4.45;;;;;;;7.20;57.66;99969.59;5081227;28;20036;-69
2022/04/19 02:35:41;;;;;;;11.75;4.85;;;;;;;7.16;57.77;99960.97;5086529;28;20020;-69
2022/04/19 02:38:06;;;;;;;7.03;4.43;;;;;;;7.23;57.23;99972.00;5081694;28;20060;-69
2022/04/19 02:40:32;;;;;;;8.73;4.78;;;;;;;7.23;57.30;99972.88;5080359;28;20419;-68
2022/04/19 02:42:57;;;;;;;8.32;4.70;;;;;;;7.23;57.66;99972.88;5078039;28;20032;-69
2022/04/19 02:45:24;;;;;;;6.28;4.38;;;;;;;7.27;56.83;99971.66;5084728;28;20080;-69
2022/04/19 02:48:05;;;;;;;7.45;4.60;;;;;;;7.29;57.35;99974.19;5079586;28;20553;-69
2022/04/19 02:50:40;;;;;;;7.05;4.90;;;;;;;7.29;56.56;99969.72;5083724;28;20027;-69
2022/04/19 02:53:05;;;;;;;7.88;4.05;;;;;;;7.30;57.09;99973.22;5074503;28;20071;-66
2022/04/19 02:55:31;;;;;;;7.40;4.10;;;;;;;7.29;57.18;99968.84;5083304;28;20048;-69
2022/04/19 02:57:56;;;;;;;5.88;4.38;;;;;;;7.30;56.92;99966.06;5079428;28;20036;-69
2022/04/19 03:00:23;;;;;;;7.78;4.40;;;;;;;7.29;57.33;99964.38;5075622;28;20509;-68
2022/04/19 03:02:49;;;;;;;5.25;4.03;;;;;;;7.28;56.96;99967.16;5080397;28;20058;-68
2022/04/19 03:05:15;;;;;;;10.77;4.03;;;;;;;7.30;55.97;99973.22;5075312;28;20024;-69
2022/04/19 03:07:41;;;;;;;7.40;4.93;;;;;;;7.29;56.54;99961.72;5086980;28;20027;-68
2022/04/19 03:10:06;;;;;;;7.05;4.68;;;;;;;7.27;56.48;99970.78;5082304;28;20031;-68
2022/04/19 03:12:32;;;;;;;9.40;5.10;;;;;;;7.25;56.53;99962.06;5080793;28;20086;-69
2022/04/19 03:14:57;;;;;;;8.43;5.22;;;;;;;7.26;56.08;99964.63;5082235;28;20086;-69
2022/04/19 03:17:23;;;;;;;8.65;4.60;;;;;;;7.18;56.65;99955.50;5083417;28;20027;-69
2022/04/19 03:19:49;;;;;;;7.13;4.72;;;;;;;7.20;56.59;99957.09;5087016;28;20024;-68
2022/04/19 03:22:14;;;;;;;9.90;4.75;;;;;;;7.21;56.67;99960.59;5081076;28;20034;-68
2022/04/19 03:27:43;;;;;;;8.13;5.00;;;;;;;7.17;57.03;99956.50;5018449;28;20079;-69
2022/04/19 03:30:14;;;;;;;8.10;4.70;;;;;;;7.14;57.01;99960.25;5016351;28;20065;-66
2022/04/19 03:32:42;;;;;;;7.43;5.18;;;;;;;7.10;56.84;99956.16;5044110;28;20101;-65
2022/04/19 03:35:08;;;;;;;6.15;4.47;;;;;;;7.07;57.54;99955.53;5077286;28;20428;-65
2022/04/19 03:37:33;;;;;;;7.68;4.63;;;;;;;7.06;57.64;99954.66;5069203;28;20021;-66
2022/04/19 03:39:59;;;;;;;6.32;4.50;;;;;;;7.05;57.58;99958.31;5078617;28;20033;-65
2022/04/19 03:42:25;;;;;;;7.72;4.60;;;;;;;7.00;57.45;99949.84;5074072;28;20035;-66
2022/04/19 03:44:50;;;;;;;9.18;4.82;;;;;;;7.07;57.57;99960.84;5084493;28;20020;-65
2022/04/19 03:47:16;;;;;;;8.05;4.82;;;;;;;7.04;57.44;99952.13;5074485;28;20086;-66
2022/04/19 03:49:44;;;;;;;8.60;5.30;;;;;;;7.07;57.44;99964.38;5080847;28;20031;-66
2022/04/19 03:52:10;;;;;;;6.63;4.88;;;;;;;7.07;57.76;99962.53;5075212;28;20478;-66
2022/04/19 03:54:37;;;;;;;9.82;4.53;;;;;;;7.04;57.77;99965.44;5082661;28;20504;-66
2022/04/19 03:57:07;;;;;;;6.70;4.55;;;;;;;7.00;57.43;99958.66;5076076;28;20036;-66
2022/04/19 03:59:34;;;;;;;9.30;4.53;;;;;;;7.02;58.15;99963.06;5082596;28;20035;-69
2022/04/19 04:01:59;;;;;;;6.45;5.15;;;;;;;6.95;57.96;99963.53;5080641;28;20565;-68
2022/04/19 04:04:36;;;;;;;7.47;5.53;;;;;;;6.91;58.18;99950.56;5084034;28;20026;-70
2022/04/19 04:07:06;;;;;;;8.52;5.32;;;;;;;6.97;58.08;99958.09;5080425;28;20119;-69
2022/04/19 04:09:32;;;;;;;14.98;6.70;;;;;;;6.95;58.45;99966.19;5079596;28;20027;-69
2022/04/19 04:12:09;;;;;;;8.60;5.57;;;;;;;6.95;58.07;99966.19;5082861;28;20020;-69
2022/04/19 04:14:42;;;;;;;11.55;6.05;;;;;;;6.95;58.45;99968.00;5077131;28;20073;-69
2022/04/19 04:17:08;;;;;;;10.95;6.07;;;;;;;6.96;58.27;99967.03;5080264;28;20027;-69
2022/04/19 04:19:34;;;;;;;10.23;6.45;;;;;;;6.97;58.79;99971.41;5077508;28;20032;-69
2022/04/19 04:21:59;;;;;;;10.05;6.20;;;;;;;6.94;58.99;99972.47;5078066;28;20020;-69
2022/04/19 04:24:25;;;;;;;11.23;6.20;;;;;;;6.92;58.73;99969.09;5080062;28;20020;-69
2022/04/19 04:26:51;;;;;;;7.80;5.20;;;;;;;6.92;58.62;99974.44;5085290;28;20043;-69
2022/04/19 04:29:16;;;;;;;8.13;5.32;;;;;;;6.86;59.10;99960.72;5077064;28;20024;-69
2022/04/19 04:31:42;;;;;;;7.10;4.93;;;;;;;6.91;59.30;99971.88;5077120;28;20111;-69
2022/04/19 04:34:07;;;;;;;10.02;4.65;;;;;;;6.94;59.02;99974.31;5075725;28;20047;-69
2022/04/19 04:36:33;;;;;;;9.45;4.80;;;;;;;6.96;58.38;99964.38;5077121;28;20024;-69
2022/04/19 04:38:59;;;;;;;10.43;5.32;;;;;;;6.89;58.50;99955.16;5085707;28;20028;-69
2022/04/19 04:41:24;;;;;;;6.35;4.30;;;;;;;6.98;58.75;99965.09;5081334;28;20020;-69
2022/04/19 04:43:50;;;;;;;9.57;4.65;;;;;;;6.93;58.66;99961.94;5079851;28;20028;-69
2022/04/19 04:51:43;;;;;;;6.68;4.72;;;;;;;7.03;58.54;99965.56;5062804;28;20757;-69
2022/04/19 04:54:09;;;;;;;7.00;4.20;;;;;;;7.04;58.50;99956.63;5071832;28;20020;-69
2022/04/19 04:56:35;;;;;;;7.25;4.43;;;;;;;7.10;58.97;99965.94;5066512;28;20024;-69
2022/04/19 04:59:00;;;;;;;9.63;4.63;;;;;;;7.14;59.11;99964.72;5073702;28;20500;-70
2022/04/19 05:01:26;;;;;;;6.80;4.25;;;;;;;7.17;58.59;99961.81;5083680;28;20023;-69
2022/04/19 05:03:51;;;;;;;5.43;4.00;;;;;;;7.22;58.37;99962.31;5071374;28;20028;-69
2022/04/19 05:06:17;;;;;;;5.03;3.72;;;;;;;7.29;59.03;99960.84;5066292;28;20115;-69
2022/04/19 05:08:42;;;;;;;6.10;3.80;;;;;;;7.34;58.06;99963.97;5063568;28;20041;-69
2022/04/19 05:11:08;;;;;;;8.55;4.30;;;;;;;7.44;58.12;99968.47;5069030;28;20061;-69
2022/04/19 05:13:34;;;;;;;6.47;4.18;;;;;;;7.50;58.26;99965.31;5072998;28;20031;-69
2022/04/19 05:16:01;;;;;;;9.35;4.13;;;;;;;7.63;58.48;99982.03;5087332;28;20027;-68
2022/04/19 05:18:26;;;;;;;6.65;4.18;;;;;;;7.75;57.92;99966.81;5075540;28;20083;-69
2022/04/19 05:20:52;;;;;;;7.47;4.43;;;;;;;7.82;57.67;99965.34;5080111;28;20042;-69
2022/04/19 05:23:19;;;;;;;11.55;4.45;;;;;;;7.92;57.72;99963.59;5078857;28;20036;-69
2022/04/19 05:25:44;;;;;;;8.27;4.90;;;;;;;8.10;57.20;99978.13;5080910;28;20081;-67
2022/04/19 05:28:10;;;;;;;8.38;4.68;;;;;;;8.23;57.57;99973.50;5081888;28;20032;-67
2022/04/19 05:30:36;;;;;;;13.65;4.63;;;;;;;8.25;56.77;99967.03;5083453;28;20064;-66
2022/04/19 05:33:02;;;;;;;10.20;4.10;;;;;;;8.40;56.21;99975.59;5082687;28;20035;-66
2022/04/19 05:35:28;;;;;;;6.13;4.00;;;;;;;8.44;56.19;99975.19;5085199;28;20024;-66
2022/04/19 05:37:55;;;;;;;4.60;3.58;;;;;;;8.51;55.91;99970.16;5076168;28;20621;-66
2022/04/19 05:40:21;;;;;;;6.38;3.97;;;;;;;8.58;55.55;99969.53;5082988;28;20452;-67
2022/04/19 05:42:47;;;;;;;7.40;4.53;;;;;;;8.66;55.39;99968.88;5080431;28;20016;-67
2022/04/19 05:45:12;;;;;;;5.15;3.83;;;;;;;8.71;55.35;99964.81;5083152;28;20033;-66
2022/04/19 05:47:38;;;;;;;6.13;4.13;;;;;;;8.82;54.99;99966.59;5083368;28;20056;-66
2022/04/19 05:50:03;;;;;;;6.30;3.92;;;;;;;8.97;54.39;99967.94;5079810;28;20111;-67
2022/04/19 05:52:29;;;;;;;8.40;3.85;;;;;;;9.06;55.03;99980.50;5074097;28;20057;-67
2022/04/19 05:54:54;;;;;;;9.82;4.20;;;;;;;9.18;54.79;99977.59;5081501;28;20630;-67
2022/04/19 05:57:20;;;;;;;4.68;3.22;;;;;;;9.33;54.19;99980.78;5075886;28;20406;-69
2022/04/19 05:59:45;;;;;;;6.32;3.90;;;;;;;9.49;53.75;99986.47;5084635;28;20025;-67
2022/04/19 06:04:56;;;;;;;4.95;4.00;;;;;;;9.74;53.34;99991.31;5080326;28;20546;-70
2022/04/19 06:07:23;;;;;;;5.22;3.70;;;;;;;9.84;52.83;99989.53;5079828;28;20106;-67
2022/04/19 06:09:49;;;;;;;8.18;3.47;;;;;;;9.95;52.07;99985.84;5076401;28;20040;-67
2022/04/19 06:12:15;;;;;;;5.68;3.42;;;;;;;9.93;52.08;99969.09;5076298;28;20036;-67
2022/04/19 06:14:40;;;;;;;4.55;3.25;;;;;;;9.91;52.11;99966.56;5081423;28;20020;-67
2022/04/19 06:17:06;;;;;;;7.30;3.67;;;;;;;9.99;51.63;99980.09;5077621;28;20477;-66
2022/04/19 06:19:31;;;;;;;5.72;3.58;;;;;;;9.90;51.59;99956.81;5083780;28;20454;-67
2022/04/19 06:21:57;;;;;;;8.88;4.00;;;;;;;9.90;51.91;99967.50;5081154;28;20020;-67
2022/04/19 06:24:24;;;;;;;7.38;3.95;;;;;;;9.87;52.49;99957.06;5081509;28;20039;-67
2022/04/19 06:26:50;;;;;;;6.68;3.65;;;;;;;9.89;52.62;99963.16;5083504;28;20031;-67
2022/04/19 06:29:15;;;;;;;6.38;4.07;;;;;;;9.86;52.54;99960.75;5084408;28;20667;-67
2022/04/19 06:31:41;;;;;;;5.35;3.95;;;;;;;9.80;52.31;99950.59;5080279;28;20033;-67
2022/04/19 06:34:07;;;;;;;6.82;4.40;;;;;;;9.78;52.51;99955.25;5079965;28;20024;-67
2022/04/19 06:36:34;;;;;;;5.97;4.07;;;;;;;9.75;52.19;99947.50;5077252;28;20028;-67
2022/04/19 06:39:00;;;;;;;8.75;4.28;;;;;;;9.76;52.50;99964.38;5080146;28;20103;-67
2022/04/19 06:41:25;;;;;;;5.68;4.15;;;;;;;9.69;52.57;99969.47;5085782;28;20058;-67
2022/04/19 06:43:51;;;;;;;5.97;4.07;;;;;;;9.67;51.45;99963.38;5077074;28;20032;-67
2022/04/19 06:46:18;;;;;;;6.35;4.40;;;;;;;9.60;51.51;99978.31;5080511;28;20036;-68
2022/04/19 06:48:43;;;;;;;8.43;4.78;;;;;;;9.53;51.59;99963.78;5083854;28;20125;-68
2022/04/19 06:51:09;;;;;;;5.40;4.05;;;;;;;9.45;51.54;99952.06;5083454;28;20032;-69
2022/04/19 06:53:36;;;;;;;5.93;4.47;;;;;;;9.51;52.05;99964.91;5089585;28;20115;-68
2022/04/19 06:56:04;;;;;;;6.13;4.28;;;;;;;9.53;51.61;99945.06;5080663;28;20386;-69
2022/04/19 06:58:32;;;;;;;9.52;4.55;;;;;;;9.50;51.59;99929.25;5076169;28;20439;-68
2022/04/19 07:00:58;;;;;;;9.00;4.90;;;;;;;9.61;51.59;99947.03;5074369;28;20032;-68
2022/04/19 07:03:24;;;;;;;7.93;4.28;;;;;;;9.70;51.32;99939.03;5075993;28;20063;-68
2022/04/19 07:05:50;;;;;;;7.93;4.88;;;;;;;9.84;51.62;99943.13;5080029;28;20021;-69
2022/04/19 07:08:16;;;;;;;7.32;4.40;;;;;;;10.08;51.69;99943.59;5084833;28;20027;-69
2022/04/19 07:10:41;;;;;;;5.28;3.97;;;;;;;10.37;50.45;99934.56;5085077;28;20040;-69
2022/04/19 07:13:07;;;;;;;6.35;4.65;;;;;;;10.71;49.86;99933.09;5088839;28;20024;-70
2022/04/19 07:15:33;;;;;;;8.02;4.25;;;;;;;11.10;48.63;99936.50;5086269;28;20042;-70
2022/04/19 07:17:58;;;;;;;5.25;3.88;;;;;;;11.36;47.13;99926.78;5085652;28;20024;-70
2022/04/19 07:28:36;;;;;;;3.63;3.30;;;;;;;12.32;43.56;99937.75;5076294;28;20041;-67
2022/04/19 07:31:05;;;;;;;6.35;3.70;;;;;;;12.57;43.03;99927.00;5074441;28;20045;-67
2022/04/19 07:33:31;;;;;;;5.82;3.55;;;;;;;12.79;42.66;99931.88;5071745;28;20442;-67
2022/04/19 07:35:57;;;;;;;6.22;3.70;;;;;;;13.06;42.82;99931.75;5075862;28;20498;-67
2022/04/19 07:38:23;;;;;;;4.53;3.70;;;;;;;13.24;42.03;99940.59;5072271;28;20031;-67
2022/04/19 07:40:49;;;;;;;5.05;3.95;;;;;;;13.43;42.15;99934.13;5075966;28;20036;-67
2022/04/19 07:43:15;;;;;;;5.25;3.50;;;;;;;13.59;42.46;99932.34;5078541;28;20496;-67
2022/04/19 07:45:41;;;;;;;4.95;3.83;;;;;;;13.77;41.59;99934.06;5076928;28;20093;-67
2022/04/19 07:48:07;;;;;;;5.00;3.95;;;;;;;13.97;40.64;99941.72;5076232;28;20080;-67
2022/04/19 07:50:34;;;;;;;6.30;4.05;;;;;;;14.19;40.72;99927.56;5079997;28;20538;-70
2022/04/19 07:53:00;;;;;;;5.00;3.67;;;;;;;14.38;40.71;99929.16;5083053;28;20024;-69
2022/04/19 07:55:27;;;;;;;6.10;4.05;;;;;;;14.48;39.96;99925.25;5078306;28;20031;-70
2022/04/19 07:57:53;;;;;;;6.00;3.85;;;;;;;14.58;39.65;99915.16;5085748;28;20028;-67
2022/04/19 08:00:19;;;;;;;5.05;3.85;;;;;;;14.69;39.67;99928.28;5087576;28;20089;-67
2022/04/19 08:02:45;;;;;;;5.65;3.80;;;;;;;14.81;39.14;99910.72;5079548;28;20028;-67
2022/04/19 08:05:11;;;;;;;7.22;3.88;;;;;;;14.98;39.09;99917.78;5073406;28;20036;-67
2022/04/19 08:07:36;;;;;;;4.82;3.60;;;;;;;15.04;38.83;99905.44;5082825;28;20027;-67
2022/04/19 08:10:03;;;;;;;5.40;3.72;;;;;;;15.31;38.31;99913.94;5083300;28;20362;-67
2022/04/19 08:12:29;;;;;;;5.38;3.45;;;;;;;15.52;38.32;99913.41;5079804;28;20094;-71
2022/04/19 08:14:55;;;;;;;6.10;3.30;;;;;;;15.74;37.55;99907.22;5081609;28;20052;-70
2022/04/19 08:17:21;;;;;;;5.45;2.95;;;;;;;16.00;36.73;99896.91;5073225;28;20021;-70
2022/04/19 08:19:47;;;;;;;8.30;4.05;;;;;;;16.22;35.70;99884.41;5080032;28;20181;-70
2022/04/19 08:22:12;;;;;;;4.30;3.35;;;;;;;16.53;35.37;99904.13;5084611;28;20016;-70
2022/04/19 08:24:38;;;;;;;3.63;3.17;;;;;;;16.72;34.63;99885.50;5084246;28;20032;-70
2022/04/19 08:27:04;;;;;;;4.65;3.45;;;;;;;17.19;34.27;99906.84;5075662;28;20116;-70
2022/04/19 08:29:30;;;;;;;5.95;3.40;;;;;;;17.67;33.33;99898.16;5080614;28;20364;-70
2022/04/19 08:31:55;;;;;;;6.78;3.33;;;;;;;18.26;32.38;99887.91;5075198;28;20036;-70
2022/04/19 08:34:21;;;;;;;4.93;3.35;;;;;;;19.00;31.57;99882.72;5081572;28;20089;-70
2022/04/19 08:36:47;;;;;;;3.78;3.00;;;;;;;19.96;30.60;99885.31;5084403;28;20058;-70
2022/04/19 08:39:12;;;;;;;6.38;3.10;;;;;;;21.03;29.25;99886.91;5082615;28;20055;-70
2022/04/19 08:41:39;;;;;;;4.65;3.40;;;;;;;21.99;27.72;99879.44;5078623;28;20035;-71
2022/04/19 08:44:05;;;;;;;5.72;3.25;;;;;;;22.18;27.17;99875.75;5072033;28;20024;-70
2022/04/19 08:46:37;;;;;;;2.72;2.53;;;;;;;22.34;27.02;99874.38;5084392;28;20035;-70
2022/04/19 08:49:04;;;;;;;5.32;3.38;;;;;;;21.45;27.37;99887.22;5076787;28;20482;-70
2022/04/19 08:51:34;;;;;;;3.50;3.20;;;;;;;21.20;27.59;99871.75;5082889;28;20482;-70
2022/04/19 08:59:29;;;;;;;;;;;;;;;20.01;28.76;99872.75;5084239;28;20046;-70
2022/04/19 09:01:54;;;;;;;5.55;3.97;;;;;;;19.68;29.49;99869.09;5085746;28;19912;-70
2022/04/19 09:04:24;;;;;;;5.95;3.72;;;;;;;19.29;29.33;99854.47;5083564;28;20020;-70
2022/04/19 09:06:50;;;;;;;7.38;3.58;;;;;;;18.87;30.09;99860.91;5083296;28;20048;-70
2022/04/19 09:09:20;;;;;;;7.65;4.10;;;;;;;18.44;31.06;99845.72;5085560;28;20020;-70
2022/04/19 09:11:45;;;;;;;8.15;4.13;;;;;;;18.13;31.04;99858.78;5084021;28;20040;-70
2022/04/19 09:14:10;;;;;;;7.35;4.50;;;;;;;17.63;32.17;99848.00;5086740;28;20024;-70
2022/04/19 09:16:36;;;;;;;5.25;4.20;;;;;;;17.47;32.45;99867.19;5090796;28;20038;-70
2022/04/19 09:19:02;;;;;;;5.03;4.13;;;;;;;17.16;33.02;99866.56;5087877;28;20044;-69
2022/04/19 09:21:40;;;;;;;5.28;3.60;;;;;;;16.92;33.32;99855.97;5086480;28;20028;-69
2022/04/19 09:24:17;;;;;;;4.75;4.30;;;;;;;16.70;33.48;99848.81;5084514;28;20503;-70
2022/04/19 09:26:44;;;;;;;8.95;4.60;;;;;;;16.55;34.17;99856.91;5087072;28;20051;-69
2022/04/19 09:29:23;;;;;;;7.95;5.15;;;;;;;16.43;33.83;99841.25;5083264;28;20073;-70
2022/04/19 09:31:51;;;;;;;5.60;4.40;;;;;;;16.36;33.92;99851.97;5090158;28;20089;-69
2022/04/19 09:34:24;;;;;;;5.88;4.65;;;;;;;16.15;33.89;99827.44;5085014;28;20028;-69
2022/04/19 09:36:53;;;;;;;4.82;4.15;;;;;;;16.14;34.61;99846.56;5079778;28;20035;-69
2022/04/19 09:39:26;;;;;;;7.57;5.00;;;;;;;15.90;34.70;99840.31;5078409;28;20043;-69
2022/04/19 09:42:06;;;;;;;5.97;4.78;;;;;;;15.75;34.93;99847.53;5083245;28;20024;-69
2022/04/19 09:44:37;;;;;;;6.45;4.72;;;;;;;15.58;35.16;99848.66;5088316;28;20080;-69
2022/04/19 09:47:13;;;;;;;7.90;4.47;;;;;;;15.50;35.13;99850.56;5087219;28;20873;-69
2022/04/19 09:49:50;;;;;;;9.80;4.45;;;;;;;15.22;35.77;99854.72;5083721;28;20122;-69
2022/04/19 09:52:24;;;;;;;6.30;4.60;;;;;;;15.07;36.43;99868.13;5079542;28;20492;-70
2022/04/19 09:55:09;;;;;;;9.90;4.93;;;;;;;14.84;39.35;99872.59;5077003;28;20046;-69
2022/04/19 09:57:40;;;;;;;5.72;4.68;;;;;;;14.52;43.98;99877.19;5085077;28;20064;-69
2022/04/19 10:00:14;;;;;;;7.47;5.25;;;;;;;14.15;46.18;99874.16;5084664;28;20031;-71
2022/04/19 10:08:22;;;;;;;8.77;6.00;;;;;;;13.43;54.15;99896.41;5089657;28;20038;-69
2022/04/19 10:10:52;;;;;;;6.63;5.75;;;;;;;13.20;56.50;99906.94;5083622;28;20024;-70
2022/04/19 10:13:19;;;;;;;9.32;6.13;;;;;;;13.05;54.45;99911.22;5081317;28;20031;-69
2022/04/19 10:15:45;;;;;;;10.68;6.72;;;;;;;12.85;53.59;99890.03;5083627;28;20081;-69
2022/04/19 10:18:10;;;;;;;7.00;5.40;;;;;;;12.73;53.11;99900.22;5083621;28;20028;-69
2022/04/19 10:20:45;;;;;;;8.52;6.22;;;;;;;12.60;52.41;99886.34;5083857;28;20043;-69
2022/04/19 10:23:10;;;;;;;;;;;;;;;12.47;55.16;99890.44;5077328;28;20104;-69
2022/04/19 10:25:43;;;;;;;9.52;6.55;;;;;;;12.40;54.43;99892.06;5081648;28;20007;-69
2022/04/19 10:28:08;;;;;;;10.38;6.97;;;;;;;12.35;58.67;99899.78;5088468;28;20032;-69
2022/04/19 10:30:36;;;;;;;6.78;5.88;;;;;;;12.29;55.54;99901.22;5077983;28;20367;-68
2022/04/19 10:33:42;;;;;;;8.52;6.25;;;;;;;12.22;57.01;99899.34;5082692;28;20093;-68
2022/04/19 10:36:14;;;;;;;9.90;6.57;;;;;;;12.02;57.79;99900.50;5078356;28;20036;-69
2022/04/19 10:38:41;;;;;;;8.68;6.85;;;;;;;11.99;58.30;99903.50;5070419;28;20024;-70
2022/04/19 10:41:06;;;;;;;8.63;6.95;;;;;;;11.90;59.37;99901.72;5068762;28;20039;-70
2022/04/19 10:43:32;;;;;;;8.68;7.28;;;;;;;11.87;57.33;99902.88;5073710;28;20024;-70
2022/04/19 10:46:20;;;;;;;12.75;7.30;;;;;;;11.76;58.09;99905.78;5090217;28;20016;-69
2022/04/19 10:49:23;;;;;;;10.85;7.05;;;;;;;11.66;58.95;99912.19;5077559;28;20055;-70
2022/04/19 10:51:59;;;;;;;10.77;7.00;;;;;;;11.51;60.89;99898.41;5069603;28;20032;-70
2022/04/19 10:55:11;;;;;;;9.43;7.32;;;;;;;11.50;60.83;99910.16;5067926;28;20039;-68
2022/04/19 11:00:35;;;;;;;9.43;7.25;;;;;;;11.32;62.24;99920.84;5090253;28;20073;-68
2022/04/19 11:03:05;;;;;;;10.75;8.13;;;;;;;11.18;63.20;99905.25;5078604;28;20111;-68
2022/04/19 11:05:50;;;;;;;10.32;7.97;;;;;;;11.12;64.01;99913.88;5073012;28;20035;-68
2022/04/19 11:08:25;;;;;;;8.52;7.60;;;;;;;11.07;64.92;99926.88;5089531;28;20086;-68
2022/04/19 11:10:56;;;;;;;9.18;7.25;;;;;;;11.04;65.49;99927.22;5089314;28;20078;-68
2022/04/19 11:13:27;;;;;;;9.65;7.05;;;;;;;10.97;65.38;99933.31;5081410;28;20097;-68
2022/04/19 11:16:00;;;;;;;8.27;7.13;;;;;;;10.91;64.99;99931.22;5085044;28;20036;-68
2022/04/19 11:18:33;;;;;;;9.35;8.05;;;;;;;10.84;67.67;99941.66;5087897;28;20020;-68
2022/04/19 11:21:03;;;;;;;11.35;6.85;;;;;;;10.77;67.41;99937.88;5084228;28;20195;-68
2022/04/19 11:23:40;;;;;;;12.25;7.20;;;;;;;10.75;69.57;99939.88;5085362;28;20040;-68
2022/04/19 11:26:08;;;;;;;9.32;7.22;;;;;;;10.66;67.70;99932.69;5071643;28;20035;-68
2022/04/19 11:28:34;;;;;;;9.50;7.20;;;;;;;10.60;65.76;99935.94;5068870;28;20094;-69
2022/04/19 11:31:00;;;;;;;10.55;7.88;;;;;;;10.58;66.38;99942.44;5085014;28;20035;-69
2022/04/19 11:33:33;;;;;;;11.63;8.80;;;;;;;10.51;67.55;99931.44;5089116;28;20040;-69
2022/04/19 11:36:07;;;;;;;14.63;9.68;;;;;;;10.49;68.99;99936.13;5089353;28;20036;-69
2022/04/19 11:38:51;;;;;;;15.40;10.07;;;;;;;10.45;70.79;99934.69;5089499;28;20044;-69
2022/04/19 11:46:44;;;;;;;10.60;8.60;;;;;;;10.38;72.26;99946.16;5067686;28;20513;-69
2022/04/19 11:49:16;;;;;;;13.38;8.93;;;;;;;10.36;73.41;99940.06;5068535;28;20106;-68
2022/04/19 11:51:49;;;;;;;22.10;11.73;;;;;;;10.32;73.61;99944.03;5074431;28;20031;-68
2022/04/19 11:54:33;;;;;;;13.07;9.27;;;;;;;10.24;72.47;99936.69;5081442;28;20032;-68
2022/04/19 11:57:03;;;;;;;12.35;9.48;;;;;;;10.31;72.06;99935.13;5068757;28;20036;-68
2022/04/19 11:59:40;;;;;;;12.02;9.15;;;;;;;10.36;69.73;99946.28;5072910;28;20028;-68
2022/04/19 12:02:17;;;;;;;12.50;9.02;;;;;;;10.39;70.18;99942.47;5066109;28;20486;-68
2022/04/19 12:05:22;;;;;;;11.60;8.75;;;;;;;10.37;70.29;99936.41;5067085;28;20024;-69
2022/04/19 12:07:48;;;;;;;15.02;10.10;;;;;;;10.27;69.87;99923.00;5068159;28;20094;-69
2022/04/19 12:10:14;;;;;;;13.25;9.00;;;;;;;10.38;68.99;99943.47;5068116;28;20028;-69
2022/04/19 12:12:39;;;;;;;15.48;10.40;;;;;;;10.31;68.10;99923.56;5068443;28;20020;-69
2022/04/19 12:15:05;;;;;;;16.77;11.02;;;;;;;10.29;69.64;99928.25;5079028;28;20036;-69
2022/04/19 12:17:31;;;;;;;14.23;9.80;;;;;;;10.35;68.88;99933.84;5087494;28;20032;-69
2022/04/19 12:20:02;;;;;;;14.10;8.45;;;;;;;10.41;70.52;99938.66;5088334;28;20076;-69